Theodore Francis Green State Airport Providence US
ICAO: KPVD
IATA: PVD
Category: Medium
Scheduled Services: Yes

Elevation: 55 ft
TransAlt. 18000 ft.

Airport Communications:
PROVIDENCE APP/DEP:135.4
ATIS:124.2
CLNC DEL:126.65
CTAF:120.7
PROVIDENCE GND:121.9
BRIDGEPORT RDO:122.6
PROVIDENCE TWR:120.7

KPVD Zoom In..

Runways:

(A) RW 05 length 7166 ft width 150 ft
ILS 109.30 / hdg 47

(B) RW 16 length 6081 ft width 150 ft
---- / hdg 157

(C) RW 23 length 7166 ft width 150 ft
ILS 109.30 / hdg 227

(D) RW 34 length 6081 ft width 150 ft
ILS 111.50 / hdg 337

Location; KPVD
Day. 21 / Time. 23.51 Zulu
* Altimeter: 30.45
* Temperature: 11° c. 51.8°f.
* Wind from: 030° Speed 06 kn.
Dewpoint: 03° c.
Visibility: 10 Statute Miles.
Clouds: Clear (automated report).

KPVD 212351Z 03006KT 10SM CLR 11/03 A3045 RMK AO2 SLP310 T01110033 10189 20111 56009

Going to: --> -->


Wind From 030°
Speed 06 kn.

 
 
jpsmedia worldairports.se 2020   terms of use